Sadiqabad Weather



Sadiqabad's Current Weather

Temprature 41.2o scattered clouds

scattered clouds

Rain: 0 %

Min Temprature41.2o
Max Temprature41.2o
Humidity30
Wind Speed5.49 m/h
Sun Rise05:48:15
Sun Set19:00:36
Current Time: 13-Aug-2020 18:40:17
Lat/Lon: 28.31, 70.13




Sadiqabad's Geo Location



Sadiqabad's Weather Forecast

Time Overall Temp Min Temp Max Temp Humidity Wind Speed Rain
13-Aug-2020 (Thu)
20:00:00 few clouds 41.750 40.530 41.750 29 6.08 m/h 0 %
23:00:00 scattered clouds 38.480 37.260 38.480 40 7.54 m/h 0 %
14-Aug-2020 (Fri)
02:00:00 clear sky 34.240 33.650 34.240 55 6.76 m/h 0 %
05:00:00 clear sky 32.000 31.910 32.000 62 5.7 m/h 0 %
08:00:00 clear sky 33.130 33.130 33.130 58 4.77 m/h 0 %
11:00:00 clear sky 38.120 38.120 38.120 40 4.37 m/h 0 %
14:00:00 broken clouds 41.510 41.510 41.510 30 4.66 m/h 0 %
17:00:00 scattered clouds 41.870 41.870 41.870 28 4.19 m/h 0 %
20:00:00 few clouds 39.320 39.320 39.320 33 5.97 m/h 0 %
23:00:00 scattered clouds 37.620 37.620 37.620 37 5.89 m/h 0 %
15-Aug-2020 (Sat)
02:00:00 broken clouds 34.570 34.570 34.570 53 8.11 m/h 0 %
05:00:00 broken clouds 32.660 32.660 32.660 60 6.36 m/h 0 %
08:00:00 clear sky 34.400 34.400 34.400 53 5.32 m/h 0 %
11:00:00 clear sky 40.000 40.000 40.000 34 6.09 m/h 0 %
14:00:00 clear sky 43.250 43.250 43.250 26 6.52 m/h 0 %
17:00:00 clear sky 43.090 43.090 43.090 26 5.97 m/h 0 %
20:00:00 clear sky 40.140 40.140 40.140 32 6.7 m/h 0 %
23:00:00 few clouds 37.610 37.610 37.610 41 8.87 m/h 0 %
16-Aug-2020 (Sun)
02:00:00 overcast clouds 34.490 34.490 34.490 52 7.9 m/h 0 %
05:00:00 overcast clouds 32.480 32.480 32.480 57 5.66 m/h 0 %
08:00:00 overcast clouds 33.210 33.210 33.210 56 6.24 m/h 0 %
11:00:00 overcast clouds 39.490 39.490 39.490 36 6.9 m/h 0 %
14:00:00 overcast clouds 42.860 42.860 42.860 28 6.27 m/h 0 %
17:00:00 overcast clouds 42.710 42.710 42.710 27 5.9 m/h 0 %
20:00:00 overcast clouds 39.700 39.700 39.700 34 7.44 m/h 0 %
23:00:00 overcast clouds 35.930 35.930 35.930 49 9.64 m/h 0 %
17-Aug-2020 (Mon)
02:00:00 overcast clouds 33.380 33.380 33.380 55 7.23 m/h 0 %
05:00:00 overcast clouds 31.920 31.920 31.920 60 5.66 m/h 0 %
08:00:00 overcast clouds 32.680 32.680 32.680 57 7.23 m/h 0 %
11:00:00 overcast clouds 38.790 38.790 38.790 37 7.4 m/h 0 %
14:00:00 broken clouds 41.330 41.330 41.330 31 7.75 m/h 0 %
17:00:00 broken clouds 39.410 39.410 39.410 35 7.36 m/h 0 %
20:00:00 broken clouds 36.040 36.040 36.040 43 6.58 m/h 0 %
23:00:00 broken clouds 34.700 34.700 34.700 48 5.55 m/h 0 %
18-Aug-2020 (Tue)
02:00:00 broken clouds 33.570 33.570 33.570 53 4.6 m/h 0 %
05:00:00 broken clouds 32.080 32.080 32.080 60 4.81 m/h 0 %
08:00:00 broken clouds 33.330 33.330 33.330 55 4.19 m/h 0 %
11:00:00 broken clouds 37.860 37.860 37.860 41 5.16 m/h 0 %
14:00:00 broken clouds 40.270 40.270 40.270 35 4.94 m/h 0 %
17:00:00 broken clouds 40.640 40.640 40.640 33 3.86 m/h 0 %


Sadiqabad's Tourist Spots

Historical Places in Sadiqabad

Famous Cities (60)